sensor_id;sensor_type;location;lat;lon;timestamp;pressure;altitude;pressure_sealevel;temperature;humidity
76022;BME280;64718;52.124;6.226;2023-07-30T00:01:23;100871.63;;;13.31;100.00
76022;BME280;64718;52.124;6.226;2023-07-30T00:03:49;100870.22;;;13.41;100.00
76022;BME280;64718;52.124;6.226;2023-07-30T00:06:16;100873.31;;;13.32;100.00
76022;BME280;64718;52.124;6.226;2023-07-30T00:08:42;100868.47;;;13.24;100.00
76022;BME280;64718;52.124;6.226;2023-07-30T00:11:09;100872.66;;;13.44;100.00
76022;BME280;64718;52.124;6.226;2023-07-30T00:13:37;100872.91;;;13.40;100.00
76022;BME280;64718;52.124;6.226;2023-07-30T00:16:03;100872.75;;;13.43;100.00
76022;BME280;64718;52.124;6.226;2023-07-30T00:18:30;100874.75;;;13.38;100.00
76022;BME280;64718;52.124;6.226;2023-07-30T00:20:57;100866.75;;;13.41;100.00
76022;BME280;64718;52.124;6.226;2023-07-30T00:23:23;100867.25;;;13.32;100.00
76022;BME280;64718;52.124;6.226;2023-07-30T00:25:50;100867.47;;;13.27;100.00
76022;BME280;64718;52.124;6.226;2023-07-30T00:28:16;100867.94;;;13.35;100.00
76022;BME280;64718;52.124;6.226;2023-07-30T00:30:45;100867.84;;;13.37;100.00
76022;BME280;64718;52.124;6.226;2023-07-30T00:33:11;100872.59;;;13.46;100.00
76022;BME280;64718;52.124;6.226;2023-07-30T00:35:38;100874.19;;;13.48;100.00
76022;BME280;64718;52.124;6.226;2023-07-30T00:38:05;100878.16;;;13.55;100.00
76022;BME280;64718;52.124;6.226;2023-07-30T00:40:31;100874.34;;;13.61;100.00
76022;BME280;64718;52.124;6.226;2023-07-30T00:42:58;100877.72;;;13.63;100.00
76022;BME280;64718;52.124;6.226;2023-07-30T00:45:24;100879.16;;;13.69;100.00
76022;BME280;64718;52.124;6.226;2023-07-30T00:47:52;100874.94;;;13.66;100.00
76022;BME280;64718;52.124;6.226;2023-07-30T00:50:19;100876.47;;;13.70;100.00
76022;BME280;64718;52.124;6.226;2023-07-30T00:52:46;100877.41;;;13.69;100.00
76022;BME280;64718;52.124;6.226;2023-07-30T00:55:13;100879.84;;;13.72;100.00
76022;BME280;64718;52.124;6.226;2023-07-30T00:57:41;100883.38;;;13.71;100.00
76022;BME280;64718;52.124;6.226;2023-07-30T01:00:08;100889.44;;;13.72;100.00
76022;BME280;64718;52.124;6.226;2023-07-30T01:02:36;100886.91;;;13.70;100.00
76022;BME280;64718;52.124;6.226;2023-07-30T01:05:05;100887.94;;;13.68;100.00
76022;BME280;64718;52.124;6.226;2023-07-30T01:07:31;100886.00;;;13.87;100.00
76022;BME280;64718;52.124;6.226;2023-07-30T01:09:58;100891.66;;;13.79;100.00
76022;BME280;64718;52.124;6.226;2023-07-30T01:12:26;100896.44;;;13.87;100.00
76022;BME280;64718;52.124;6.226;2023-07-30T01:14:55;100893.25;;;13.82;100.00
76022;BME280;64718;52.124;6.226;2023-07-30T01:17:23;100892.66;;;13.77;100.00
76022;BME280;64718;52.124;6.226;2023-07-30T01:19:49;100892.75;;;13.75;100.00
76022;BME280;64718;52.124;6.226;2023-07-30T01:22:21;100897.53;;;13.83;100.00
76022;BME280;64718;52.124;6.226;2023-07-30T01:24:48;100889.78;;;13.81;100.00
76022;BME280;64718;52.124;6.226;2023-07-30T01:27:19;100897.25;;;13.89;100.00
76022;BME280;64718;52.124;6.226;2023-07-30T01:29:51;100899.34;;;13.98;100.00
76022;BME280;64718;52.124;6.226;2023-07-30T01:32:22;100900.00;;;14.02;100.00
76022;BME280;64718;52.124;6.226;2023-07-30T01:34:53;100903.97;;;13.93;100.00
76022;BME280;64718;52.124;6.226;2023-07-30T01:37:22;100904.56;;;13.98;100.00
76022;BME280;64718;52.124;6.226;2023-07-30T01:39:49;100911.16;;;14.05;100.00
76022;BME280;64718;52.124;6.226;2023-07-30T01:42:16;100909.28;;;14.07;100.00
76022;BME280;64718;52.124;6.226;2023-07-30T01:44:43;100912.16;;;14.03;100.00
76022;BME280;64718;52.124;6.226;2023-07-30T01:47:09;100899.00;;;14.04;100.00
76022;BME280;64718;52.124;6.226;2023-07-30T01:49:36;100914.09;;;13.99;100.00
76022;BME280;64718;52.124;6.226;2023-07-30T01:52:03;100901.28;;;13.95;100.00
76022;BME280;64718;52.124;6.226;2023-07-30T01:54:31;100916.31;;;13.91;100.00
76022;BME280;64718;52.124;6.226;2023-07-30T01:56:57;100916.53;;;13.86;100.00
76022;BME280;64718;52.124;6.226;2023-07-30T01:59:24;100912.09;;;13.88;100.00
76022;BME280;64718;52.124;6.226;2023-07-30T02:01:51;100906.78;;;13.90;100.00
76022;BME280;64718;52.124;6.226;2023-07-30T02:04:17;100910.44;;;13.86;100.00
76022;BME280;64718;52.124;6.226;2023-07-30T02:06:44;100908.94;;;13.82;100.00
76022;BME280;64718;52.124;6.226;2023-07-30T02:09:10;100912.13;;;13.87;100.00
76022;BME280;64718;52.124;6.226;2023-07-30T02:11:38;100904.06;;;13.91;100.00
76022;BME280;64718;52.124;6.226;2023-07-30T02:14:05;100908.28;;;13.94;100.00
76022;BME280;64718;52.124;6.226;2023-07-30T02:16:31;100914.94;;;14.00;100.00
76022;BME280;64718;52.124;6.226;2023-07-30T02:18:58;100914.09;;;13.99;100.00
76022;BME280;64718;52.124;6.226;2023-07-30T02:21:24;100907.69;;;13.89;100.00
76022;BME280;64718;52.124;6.226;2023-07-30T02:23:51;100911.47;;;13.83;100.00
76022;BME280;64718;52.124;6.226;2023-07-30T02:26:18;100912.56;;;13.79;100.00
76022;BME280;64718;52.124;6.226;2023-07-30T02:28:46;100910.41;;;13.87;100.00
76022;BME280;64718;52.124;6.226;2023-07-30T02:31:12;100904.28;;;13.87;100.00
76022;BME280;64718;52.124;6.226;2023-07-30T02:33:39;100899.84;;;13.89;100.00
76022;BME280;64718;52.124;6.226;2023-07-30T02:36:05;100901.94;;;13.82;100.00
76022;BME280;64718;52.124;6.226;2023-07-30T02:38:32;100905.66;;;13.78;100.00
76022;BME280;64718;52.124;6.226;2023-07-30T02:40:58;100901.09;;;13.82;100.00
76022;BME280;64718;52.124;6.226;2023-07-30T02:43:25;100898.66;;;13.79;100.00
76022;BME280;64718;52.124;6.226;2023-07-30T02:45:53;100903.63;;;13.83;100.00
76022;BME280;64718;52.124;6.226;2023-07-30T02:48:19;100908.63;;;13.88;100.00
76022;BME280;64718;52.124;6.226;2023-07-30T02:50:46;100906.16;;;13.85;100.00
76022;BME280;64718;52.124;6.226;2023-07-30T02:53:12;100899.00;;;13.88;100.00
76022;BME280;64718;52.124;6.226;2023-07-30T02:55:39;100898.16;;;13.88;100.00
76022;BME280;64718;52.124;6.226;2023-07-30T02:58:05;100894.63;;;13.89;100.00
76022;BME280;64718;52.124;6.226;2023-07-30T03:00:32;100892.84;;;13.89;100.00
76022;BME280;64718;52.124;6.226;2023-07-30T03:03:00;100897.91;;;13.92;100.00
76022;BME280;64718;52.124;6.226;2023-07-30T03:05:26;100901.38;;;13.93;100.00
76022;BME280;64718;52.124;6.226;2023-07-30T03:07:53;100904.06;;;13.91;100.00
76022;BME280;64718;52.124;6.226;2023-07-30T03:10:20;100905.59;;;13.96;100.00
76022;BME280;64718;52.124;6.226;2023-07-30T03:12:46;100902.72;;;14.00;100.00
76022;BME280;64718;52.124;6.226;2023-07-30T03:15:13;100913.16;;;14.00;100.00
76022;BME280;64718;52.124;6.226;2023-07-30T03:17:39;100910.06;;;13.93;100.00
76022;BME280;64718;52.124;6.226;2023-07-30T03:20:08;100911.75;;;13.95;100.00
76022;BME280;64718;52.124;6.226;2023-07-30T03:22:35;100902.28;;;13.92;100.00
76022;BME280;64718;52.124;6.226;2023-07-30T03:25:01;100906.50;;;13.95;100.00
76022;BME280;64718;52.124;6.226;2023-07-30T03:27:28;100908.44;;;13.91;100.00
76022;BME280;64718;52.124;6.226;2023-07-30T03:29:55;100906.50;;;13.95;100.00
76022;BME280;64718;52.124;6.226;2023-07-30T03:32:21;100903.31;;;13.89;100.00
76022;BME280;64718;52.124;6.226;2023-07-30T03:34:48;100900.59;;;13.91;100.00
76022;BME280;64718;52.124;6.226;2023-07-30T03:37:16;100909.47;;;13.88;100.00
76022;BME280;64718;52.124;6.226;2023-07-30T03:39:42;100905.31;;;13.84;100.00
76022;BME280;64718;52.124;6.226;2023-07-30T03:42:09;100900.59;;;13.91;100.00
76022;BME280;64718;52.124;6.226;2023-07-30T03:44:35;100896.31;;;13.90;100.00
76022;BME280;64718;52.124;6.226;2023-07-30T03:47:02;100907.53;;;13.92;100.00
76022;BME280;64718;52.124;6.226;2023-07-30T03:49:29;100896.97;;;13.93;100.00
76022;BME280;64718;52.124;6.226;2023-07-30T03:51:55;100896.81;;;13.97;100.00
76022;BME280;64718;52.124;6.226;2023-07-30T03:54:23;100901.19;;;13.96;100.00
76022;BME280;64718;52.124;6.226;2023-07-30T03:56:50;100903.72;;;13.98;100.00
76022;BME280;64718;52.124;6.226;2023-07-30T03:59:16;100898.25;;;14.02;100.00
76022;BME280;64718;52.124;6.226;2023-07-30T04:01:43;100907.50;;;14.08;100.00
76022;BME280;64718;52.124;6.226;2023-07-30T04:04:10;100908.09;;;14.13;100.00
76022;BME280;64718;52.124;6.226;2023-07-30T04:06:36;100903.28;;;14.21;100.00
76022;BME280;64718;52.124;6.226;2023-07-30T04:09:03;100905.38;;;14.30;100.00
76022;BME280;64718;52.124;6.226;2023-07-30T04:11:31;100904.91;;;14.38;100.00
76022;BME280;64718;52.124;6.226;2023-07-30T04:13:57;100908.06;;;14.44;100.00
76022;BME280;64718;52.124;6.226;2023-07-30T04:16:24;100911.09;;;14.52;100.00
76022;BME280;64718;52.124;6.226;2023-07-30T04:18:50;100914.41;;;14.56;100.00
76022;BME280;64718;52.124;6.226;2023-07-30T04:21:17;100921.97;;;14.61;100.00
76022;BME280;64718;52.124;6.226;2023-07-30T04:23:43;100924.91;;;14.70;100.00
76022;BME280;64718;52.124;6.226;2023-07-30T04:26:10;100926.41;;;14.74;100.00
76022;BME280;64718;52.124;6.226;2023-07-30T04:28:38;100927.72;;;14.81;100.00
76022;BME280;64718;52.124;6.226;2023-07-30T04:31:04;100917.06;;;14.84;100.00
76022;BME280;64718;52.124;6.226;2023-07-30T04:33:31;100917.56;;;14.91;100.00
76022;BME280;64718;52.124;6.226;2023-07-30T04:35:59;100912.13;;;14.94;100.00
76022;BME280;64718;52.124;6.226;2023-07-30T04:38:25;100913.63;;;14.98;100.00
76022;BME280;64718;52.124;6.226;2023-07-30T04:40:52;100908.06;;;15.04;100.00
76022;BME280;64718;52.124;6.226;2023-07-30T04:43:19;100910.41;;;15.09;100.00
76022;BME280;64718;52.124;6.226;2023-07-30T04:45:47;100915.25;;;15.15;100.00
76022;BME280;64718;52.124;6.226;2023-07-30T04:48:13;100920.31;;;15.18;100.00
76022;BME280;64718;52.124;6.226;2023-07-30T04:50:40;100924.44;;;15.22;100.00
76022;BME280;64718;52.124;6.226;2023-07-30T04:53:07;100925.28;;;15.23;100.00
76022;BME280;64718;52.124;6.226;2023-07-30T04:55:34;100926.03;;;15.25;100.00
76022;BME280;64718;52.124;6.226;2023-07-30T04:58:01;100931.84;;;15.30;100.00
76022;BME280;64718;52.124;6.226;2023-07-30T05:00:28;100945.41;;;15.36;100.00
76022;BME280;64718;52.124;6.226;2023-07-30T05:02:56;100937.72;;;15.33;100.00
76022;BME280;64718;52.124;6.226;2023-07-30T05:05:23;100940.34;;;15.33;100.00
76022;BME280;64718;52.124;6.226;2023-07-30T05:07:50;100940.25;;;15.35;100.00
76022;BME280;64718;52.124;6.226;2023-07-30T05:10:16;100930.16;;;15.43;100.00
76022;BME280;64718;52.124;6.226;2023-07-30T05:12:43;100945.41;;;15.50;100.00
76022;BME280;64718;52.124;6.226;2023-07-30T05:15:09;100944.88;;;15.60;100.00
76022;BME280;64718;52.124;6.226;2023-07-30T05:17:36;100944.50;;;15.66;100.00
76022;BME280;64718;52.124;6.226;2023-07-30T05:20:05;100937.44;;;15.52;100.00
76022;BME280;64718;52.124;6.226;2023-07-30T05:22:32;100943.88;;;15.62;100.00
76022;BME280;64718;52.124;6.226;2023-07-30T05:24:59;100947.31;;;15.63;100.00
76022;BME280;64718;52.124;6.226;2023-07-30T05:27:26;100953.56;;;15.60;100.00
76022;BME280;64718;52.124;6.226;2023-07-30T05:29:54;100943.47;;;15.68;100.00
76022;BME280;64718;52.124;6.226;2023-07-30T05:32:20;100946.75;;;15.72;100.00
76022;BME280;64718;52.124;6.226;2023-07-30T05:34:47;100941.41;;;15.73;100.00
76022;BME280;64718;52.124;6.226;2023-07-30T05:37:15;100943.38;;;15.84;100.00
76022;BME280;64718;52.124;6.226;2023-07-30T05:39:41;100947.03;;;16.08;100.00
76022;BME280;64718;52.124;6.226;2023-07-30T05:42:08;100945.56;;;16.04;100.00
76022;BME280;64718;52.124;6.226;2023-07-30T05:44:34;100954.28;;;16.05;100.00
76022;BME280;64718;52.124;6.226;2023-07-30T05:47:01;100950.97;;;16.16;100.00
76022;BME280;64718;52.124;6.226;2023-07-30T05:49:28;100945.59;;;16.31;100.00
76022;BME280;64718;52.124;6.226;2023-07-30T05:51:54;100940.94;;;16.49;100.00
76022;BME280;64718;52.124;6.226;2023-07-30T05:54:22;100947.56;;;16.55;100.00
76022;BME280;64718;52.124;6.226;2023-07-30T05:56:49;100944.94;;;16.55;100.00
76022;BME280;64718;52.124;6.226;2023-07-30T05:59:16;100953.38;;;16.33;100.00
76022;BME280;64718;52.124;6.226;2023-07-30T06:01:42;100962.09;;;16.33;100.00
76022;BME280;64718;52.124;6.226;2023-07-30T06:04:09;100951.50;;;16.35;100.00
76022;BME280;64718;52.124;6.226;2023-07-30T06:06:35;100958.81;;;16.30;100.00
76022;BME280;64718;52.124;6.226;2023-07-30T06:09:02;100952.06;;;16.53;100.00
76022;BME280;64718;52.124;6.226;2023-07-30T06:11:30;100954.09;;;16.62;100.00
76022;BME280;64718;52.124;6.226;2023-07-30T06:13:56;100957.78;;;16.86;100.00
76022;BME280;64718;52.124;6.226;2023-07-30T06:16:23;100955.03;;;16.88;100.00
76022;BME280;64718;52.124;6.226;2023-07-30T06:18:50;100950.63;;;17.01;100.00
76022;BME280;64718;52.124;6.226;2023-07-30T06:21:16;100952.19;;;16.91;100.00
76022;BME280;64718;52.124;6.226;2023-07-30T06:23:43;100948.63;;;16.92;100.00
76022;BME280;64718;52.124;6.226;2023-07-30T06:26:09;100953.91;;;17.04;100.00
76022;BME280;64718;52.124;6.226;2023-07-30T06:28:37;100945.91;;;17.06;100.00
76022;BME280;64718;52.124;6.226;2023-07-30T06:31:04;100942.53;;;17.17;100.00
76022;BME280;64718;52.124;6.226;2023-07-30T06:33:30;100947.69;;;17.31;100.00
76022;BME280;64718;52.124;6.226;2023-07-30T06:35:57;100946.13;;;17.28;100.00
76022;BME280;64718;52.124;6.226;2023-07-30T06:38:24;100943.41;;;17.43;100.00
76022;BME280;64718;52.124;6.226;2023-07-30T06:40:50;100943.59;;;17.27;100.00
76022;BME280;64718;52.124;6.226;2023-07-30T06:43:17;100961.16;;;17.52;100.00
76022;BME280;64718;52.124;6.226;2023-07-30T06:45:45;100955.38;;;17.34;100.00
76022;BME280;64718;52.124;6.226;2023-07-30T06:48:11;100959.28;;;17.54;100.00
76022;BME280;64718;52.124;6.226;2023-07-30T06:50:38;100958.31;;;17.55;100.00
76022;BME280;64718;52.124;6.226;2023-07-30T06:53:05;100956.53;;;17.55;100.00
76022;BME280;64718;52.124;6.226;2023-07-30T06:55:31;100953.03;;;17.80;100.00
76022;BME280;64718;52.124;6.226;2023-07-30T06:57:58;100949.34;;;17.95;100.00
76022;BME280;64718;52.124;6.226;2023-07-30T07:00:24;100945.75;;;17.96;100.00
76022;BME280;64718;52.124;6.226;2023-07-30T07:02:52;100957.72;;;18.37;100.00
76022;BME280;64718;52.124;6.226;2023-07-30T07:05:19;100950.56;;;18.63;98.63
76022;BME280;64718;52.124;6.226;2023-07-30T07:07:46;100962.00;;;18.51;96.21
76022;BME280;64718;52.124;6.226;2023-07-30T07:10:12;100959.44;;;18.49;96.88
76022;BME280;64718;52.124;6.226;2023-07-30T07:12:39;100963.19;;;18.34;98.00
76022;BME280;64718;52.124;6.226;2023-07-30T07:15:06;100963.94;;;18.60;97.70
76022;BME280;64718;52.124;6.226;2023-07-30T07:17:33;100966.75;;;18.70;97.43
76022;BME280;64718;52.124;6.226;2023-07-30T07:20:02;100965.94;;;18.09;98.07
76022;BME280;64718;52.124;6.226;2023-07-30T07:22:29;100961.44;;;17.85;99.61
76022;BME280;64718;52.124;6.226;2023-07-30T07:24:56;100961.84;;;17.92;99.92
76022;BME280;64718;52.124;6.226;2023-07-30T07:27:22;100969.34;;;17.85;100.00
76022;BME280;64718;52.124;6.226;2023-07-30T07:29:49;100969.81;;;18.16;100.00
76022;BME280;64718;52.124;6.226;2023-07-30T07:32:16;100971.03;;;17.99;99.63
76022;BME280;64718;52.124;6.226;2023-07-30T07:34:45;100979.75;;;17.87;100.00
76022;BME280;64718;52.124;6.226;2023-07-30T07:37:13;100967.00;;;18.06;100.00
76022;BME280;64718;52.124;6.226;2023-07-30T07:39:42;100964.19;;;17.96;100.00
76022;BME280;64718;52.124;6.226;2023-07-30T07:42:08;100962.56;;;18.07;100.00
76022;BME280;64718;52.124;6.226;2023-07-30T07:44:35;100968.13;;;18.15;100.00
76022;BME280;64718;52.124;6.226;2023-07-30T07:47:02;100969.59;;;18.43;97.89
76022;BME280;64718;52.124;6.226;2023-07-30T07:49:28;100969.41;;;18.33;97.23
76022;BME280;64718;52.124;6.226;2023-07-30T07:51:55;100968.44;;;18.71;95.82
76022;BME280;64718;52.124;6.226;2023-07-30T07:54:23;100964.69;;;19.54;90.71
76022;BME280;64718;52.124;6.226;2023-07-30T07:56:49;100968.97;;;20.00;88.13
76022;BME280;64718;52.124;6.226;2023-07-30T07:59:16;100971.66;;;19.67;88.74
76022;BME280;64718;52.124;6.226;2023-07-30T08:01:43;100981.22;;;18.99;91.35
76022;BME280;64718;52.124;6.226;2023-07-30T08:04:09;100982.50;;;18.82;92.42
76022;BME280;64718;52.124;6.226;2023-07-30T08:06:36;100977.47;;;18.43;95.13
76022;BME280;64718;52.124;6.226;2023-07-30T08:09:02;100988.06;;;18.67;94.00
76022;BME280;64718;52.124;6.226;2023-07-30T08:11:30;100984.66;;;18.41;95.22
76022;BME280;64718;52.124;6.226;2023-07-30T08:13:57;100988.84;;;18.19;95.78
76022;BME280;64718;52.124;6.226;2023-07-30T08:16:23;100989.28;;;18.13;94.72
76022;BME280;64718;52.124;6.226;2023-07-30T08:18:50;100990.22;;;18.25;93.64
76022;BME280;64718;52.124;6.226;2023-07-30T08:21:17;100985.78;;;18.49;92.38
76022;BME280;64718;52.124;6.226;2023-07-30T08:23:45;100998.78;;;18.76;91.21
76022;BME280;64718;52.124;6.226;2023-07-30T08:26:12;100991.22;;;18.72;90.79
76022;BME280;64718;52.124;6.226;2023-07-30T08:28:40;100982.84;;;18.78;91.49
76022;BME280;64718;52.124;6.226;2023-07-30T08:31:06;100973.44;;;18.98;91.14
76022;BME280;64718;52.124;6.226;2023-07-30T08:33:33;100983.34;;;19.40;88.06
76022;BME280;64718;52.124;6.226;2023-07-30T08:35:59;100962.50;;;19.37;85.61
76022;BME280;64718;52.124;6.226;2023-07-30T08:38:28;100966.22;;;19.46;86.35
76022;BME280;64718;52.124;6.226;2023-07-30T08:40:55;100961.28;;;19.41;85.02
76022;BME280;64718;52.124;6.226;2023-07-30T08:43:22;100956.72;;;19.32;86.21
76022;BME280;64718;52.124;6.226;2023-07-30T08:45:49;100949.66;;;19.33;84.18
76022;BME280;64718;52.124;6.226;2023-07-30T08:48:16;100956.13;;;19.40;83.53
76022;BME280;64718;52.124;6.226;2023-07-30T08:50:43;100970.63;;;19.12;85.21
76022;BME280;64718;52.124;6.226;2023-07-30T08:53:11;100957.44;;;19.34;84.68
76022;BME280;64718;52.124;6.226;2023-07-30T08:55:38;100966.38;;;19.89;83.28
76022;BME280;64718;52.124;6.226;2023-07-30T08:58:07;100957.41;;;20.67;75.75
76022;BME280;64718;52.124;6.226;2023-07-30T09:00:36;100974.25;;;21.79;73.62
76022;BME280;64718;52.124;6.226;2023-07-30T09:03:06;100974.53;;;21.76;73.96
76022;BME280;64718;52.124;6.226;2023-07-30T09:05:33;100977.56;;;21.72;74.01
76022;BME280;64718;52.124;6.226;2023-07-30T09:08:00;100977.19;;;21.25;74.79
76022;BME280;64718;52.124;6.226;2023-07-30T09:10:27;100970.41;;;20.59;75.54
76022;BME280;64718;52.124;6.226;2023-07-30T09:12:54;100975.81;;;20.03;79.13
76022;BME280;64718;52.124;6.226;2023-07-30T09:15:29;100966.66;;;21.14;75.33
76022;BME280;64718;52.124;6.226;2023-07-30T09:17:57;100983.97;;;20.65;73.84
76022;BME280;64718;52.124;6.226;2023-07-30T09:22:52;100970.69;;;19.56;77.77
76022;BME280;64718;52.124;6.226;2023-07-30T09:25:19;100978.38;;;19.82;78.62
76022;BME280;64718;52.124;6.226;2023-07-30T09:27:47;100977.88;;;19.54;79.61
76022;BME280;64718;52.124;6.226;2023-07-30T09:30:21;100977.59;;;19.35;81.01
76022;BME280;64718;52.124;6.226;2023-07-30T09:32:51;100977.16;;;19.52;82.40
76022;BME280;64718;52.124;6.226;2023-07-30T09:35:18;100979.69;;;19.87;81.47
76022;BME280;64718;52.124;6.226;2023-07-30T09:37:47;100984.84;;;21.07;75.86
76022;BME280;64718;52.124;6.226;2023-07-30T09:40:14;100978.69;;;21.39;73.94
76022;BME280;64718;52.124;6.226;2023-07-30T09:42:44;100979.69;;;21.06;73.63
76022;BME280;64718;52.124;6.226;2023-07-30T09:45:17;100972.84;;;21.75;69.79
76022;BME280;64718;52.124;6.226;2023-07-30T09:47:46;100978.72;;;22.09;70.18
76022;BME280;64718;52.124;6.226;2023-07-30T09:50:13;100983.06;;;21.50;69.74
76022;BME280;64718;52.124;6.226;2023-07-30T09:52:40;100989.47;;;20.73;72.22
76022;BME280;64718;52.124;6.226;2023-07-30T09:55:08;100987.75;;;20.83;72.42
76022;BME280;64718;52.124;6.226;2023-07-30T09:57:35;100979.00;;;20.72;72.28
76022;BME280;64718;52.124;6.226;2023-07-30T10:00:03;100981.19;;;20.99;71.85
76022;BME280;64718;52.124;6.226;2023-07-30T10:02:30;100977.31;;;21.44;69.82
76022;BME280;64718;52.124;6.226;2023-07-30T10:04:59;100985.97;;;21.87;69.55
76022;BME280;64718;52.124;6.226;2023-07-30T10:07:28;100977.63;;;22.22;67.64
76022;BME280;64718;52.124;6.226;2023-07-30T10:09:58;100994.81;;;21.36;66.32
76022;BME280;64718;52.124;6.226;2023-07-30T10:12:30;100998.84;;;20.98;69.26
76022;BME280;64718;52.124;6.226;2023-07-30T10:14:57;101008.44;;;20.78;71.41
76022;BME280;64718;52.124;6.226;2023-07-30T10:17:24;101021.22;;;21.26;68.90
76022;BME280;64718;52.124;6.226;2023-07-30T10:19:51;101016.03;;;21.04;67.03
76022;BME280;64718;52.124;6.226;2023-07-30T10:22:23;101005.03;;;20.88;67.81
76022;BME280;64718;52.124;6.226;2023-07-30T10:24:57;101005.75;;;21.10;69.03
76022;BME280;64718;52.124;6.226;2023-07-30T10:27:24;101009.25;;;20.90;68.78
76022;BME280;64718;52.124;6.226;2023-07-30T10:30:08;101002.66;;;20.84;68.83
76022;BME280;64718;52.124;6.226;2023-07-30T10:32:39;101007.56;;;20.57;69.42
76022;BME280;64718;52.124;6.226;2023-07-30T10:35:06;101011.66;;;20.50;68.33
76022;BME280;64718;52.124;6.226;2023-07-30T10:37:33;101005.44;;;20.83;67.72
76022;BME280;64718;52.124;6.226;2023-07-30T10:40:00;101009.94;;;21.13;68.19
76022;BME280;64718;52.124;6.226;2023-07-30T10:42:33;101013.66;;;21.42;68.79
76022;BME280;64718;52.124;6.226;2023-07-30T10:45:07;101004.97;;;21.61;67.77
76022;BME280;64718;52.124;6.226;2023-07-30T10:47:34;101000.78;;;22.39;65.38
76022;BME280;64718;52.124;6.226;2023-07-30T10:50:02;101005.44;;;22.56;63.60
76022;BME280;64718;52.124;6.226;2023-07-30T10:52:29;101010.13;;;22.24;65.16
76022;BME280;64718;52.124;6.226;2023-07-30T10:54:59;101016.72;;;21.99;65.96
76022;BME280;64718;52.124;6.226;2023-07-30T10:57:29;101015.66;;;22.11;66.01
76022;BME280;64718;52.124;6.226;2023-07-30T10:59:56;101014.69;;;21.82;65.41
76022;BME280;64718;52.124;6.226;2023-07-30T11:02:24;101007.81;;;21.69;68.19
76022;BME280;64718;52.124;6.226;2023-07-30T11:04:51;101022.41;;;21.01;68.55
76022;BME280;64718;52.124;6.226;2023-07-30T11:07:17;101034.41;;;20.73;68.88
76022;BME280;64718;52.124;6.226;2023-07-30T11:09:44;101025.31;;;20.66;70.37
76022;BME280;64718;52.124;6.226;2023-07-30T11:12:11;101022.13;;;20.83;70.75
76022;BME280;64718;52.124;6.226;2023-07-30T11:14:38;101028.53;;;21.02;65.88
76022;BME280;64718;52.124;6.226;2023-07-30T11:17:04;101019.94;;;21.72;65.44
76022;BME280;64718;52.124;6.226;2023-07-30T11:19:32;101027.22;;;22.69;64.01
76022;BME280;64718;52.124;6.226;2023-07-30T11:21:59;101037.41;;;21.54;64.05
76022;BME280;64718;52.124;6.226;2023-07-30T11:24:33;101032.81;;;21.86;66.03
76022;BME280;64718;52.124;6.226;2023-07-30T11:27:01;101034.28;;;22.00;62.81
76022;BME280;64718;52.124;6.226;2023-07-30T11:29:28;101039.97;;;21.65;65.64
76022;BME280;64718;52.124;6.226;2023-07-30T11:31:56;101039.03;;;21.45;66.88
76022;BME280;64718;52.124;6.226;2023-07-30T11:34:25;101042.66;;;21.12;67.69
76022;BME280;64718;52.124;6.226;2023-07-30T11:36:53;101045.81;;;20.85;67.22
76022;BME280;64718;52.124;6.226;2023-07-30T11:39:20;101052.53;;;20.78;69.67
76022;BME280;64718;52.124;6.226;2023-07-30T11:41:47;101041.00;;;20.79;68.62
76022;BME280;64718;52.124;6.226;2023-07-30T11:44:29;101039.91;;;21.34;68.72
76022;BME280;64718;52.124;6.226;2023-07-30T11:46:56;101039.56;;;21.39;69.23
76022;BME280;64718;52.124;6.226;2023-07-30T11:49:22;101038.94;;;21.35;69.39
76022;BME280;64718;52.124;6.226;2023-07-30T11:51:49;101034.63;;;21.34;67.49
76022;BME280;64718;52.124;6.226;2023-07-30T11:54:22;101035.69;;;21.11;69.95
76022;BME280;64718;52.124;6.226;2023-07-30T11:56:54;101042.84;;;20.99;71.18
76022;BME280;64718;52.124;6.226;2023-07-30T11:59:21;101042.28;;;21.16;71.34
76022;BME280;64718;52.124;6.226;2023-07-30T12:01:48;101040.56;;;21.68;70.05
76022;BME280;64718;52.124;6.226;2023-07-30T12:04:15;101041.28;;;22.51;68.09
76022;BME280;64718;52.124;6.226;2023-07-30T12:06:42;101042.88;;;22.82;65.66
76022;BME280;64718;52.124;6.226;2023-07-30T12:09:10;101040.50;;;22.89;60.01
76022;BME280;64718;52.124;6.226;2023-07-30T12:11:46;101042.72;;;23.03;63.52
76022;BME280;64718;52.124;6.226;2023-07-30T12:14:13;101041.31;;;22.70;63.28
76022;BME280;64718;52.124;6.226;2023-07-30T12:16:40;101046.34;;;22.73;62.50
76022;BME280;64718;52.124;6.226;2023-07-30T12:19:06;101049.97;;;22.72;58.62
76022;BME280;64718;52.124;6.226;2023-07-30T12:21:33;101051.13;;;22.98;57.94
76022;BME280;64718;52.124;6.226;2023-07-30T12:24:00;101045.66;;;23.29;57.18
76022;BME280;64718;52.124;6.226;2023-07-30T12:26:26;101061.03;;;23.06;56.89
76022;BME280;64718;52.124;6.226;2023-07-30T12:28:54;101051.09;;;23.08;58.27
76022;BME280;64718;52.124;6.226;2023-07-30T12:31:21;101049.72;;;21.95;58.85
76022;BME280;64718;52.124;6.226;2023-07-30T12:33:48;101055.81;;;21.55;60.74
76022;BME280;64718;52.124;6.226;2023-07-30T12:36:14;101052.66;;;21.40;61.71
76022;BME280;64718;52.124;6.226;2023-07-30T12:38:41;101045.13;;;21.04;62.71
76022;BME280;64718;52.124;6.226;2023-07-30T12:41:07;101058.13;;;21.28;63.54
76022;BME280;64718;52.124;6.226;2023-07-30T12:43:34;101051.59;;;21.32;60.62
76022;BME280;64718;52.124;6.226;2023-07-30T12:46:02;101053.56;;;20.98;61.89
76022;BME280;64718;52.124;6.226;2023-07-30T12:48:28;101049.63;;;21.13;64.04